• Join FlightAware (Why Join?)
  • Login
  • US Flag 
09:05PM EDT


 

Airport Tracker/Info


-or-


 

Live Flight TrackerFlight Track Log ✈ N133EV ✈ 27-Apr-2012 ✈ CYUL - KATL

Flight Track Log - Related Links

Times and Time Zones

All times are in EDT time to prevent confusion due to time zone crossing. See the N133EV flight status page for this flight to view local times or setup timezone preferences in your user account.

Time Position Orientation Groundspeed Altitude Reporting Facility
EDT Latitude Longitude Course Direction KTS MPH feet Rate Location/Type
07:09AM 45.4500 -73.7500 193° South 90 104 600  Level Montreal Center
07:10AM 45.4000 -73.7667 208° Southwest 200 230 2,600 1,980 Climbing Montreal Center
07:11AM 45.3333 -73.8167 199° South 260 299 4,600 2,220 Climbing Montreal Center
07:12AM 45.2667 -73.8500 208° Southwest 270 311 7,100 2,520 Climbing Montreal Center
07:13AM 45.2000 -73.9000 193° South 280 322 9,700 1,920 Climbing Montreal Center
07:14AM 45.1000 -73.9333 203° Southwest 310 357 11,000 1,500 Climbing Montreal Center
07:15AM 45.0167 -73.9833 200° South 340 391 12,800 1,740 Climbing Montreal Center
07:16AM 44.9167 -74.0333 220° Southwest 370 426 14,500 1,800 Climbing Montreal Center
07:17AM 44.8333 -74.1333 239° Southwest 380 437 16,500 1,980 Climbing Montreal Center
07:18AM 44.8106 -74.1869 221° Southwest 380 437 17,800 2,340 Climbing Boston Center
07:19AM 44.7342 -74.2811 221° Southwest 380 437 20,400 1,980 Climbing Boston Center
07:20AM 44.6556 -74.3778 222° Southwest 380 437 21,800 1,380 Climbing Boston Center
07:21AM 44.5681 -74.4886 223° Southwest 375 432 23,200 1,320 Climbing Boston Center
07:22AM 44.4978 -74.5792 222° Southwest 381 438 24,500 1,320 Climbing Boston Center
07:23AM 44.4167 -74.6808 222° Southwest 392 451 25,900 1,200 Climbing Boston Center
07:24AM 44.3333 -74.7853 222° Southwest 398 458 27,000 1,020 Climbing Boston Center
07:25AM 44.2497 -74.8892 222° Southwest 398 458 28,000 900 Climbing Boston Center
07:26AM 44.1642 -74.9956 222° Southwest 398 458 28,900 780 Climbing Boston Center
07:27AM 44.0764 -75.1047 222° Southwest 410 472 29,600 660 Climbing Boston Center
07:28AM 43.9861 -75.2161 222° Southwest 422 486 30,300 720 Climbing Boston Center
07:29AM 43.8958 -75.3272 221° Southwest 427 491 31,100 900 Climbing Boston Center
07:30AM 43.8053 -75.4378 221° Southwest 432 497 32,100 900 Climbing Boston Center
07:31AM 43.7128 -75.5483 221° Southwest 432 497 33,000 840 Climbing Boston Center
07:32AM 43.6244 -75.6556 221° Southwest 432 497 33,800 480 Climbing Boston Center
07:33AM 43.5336 -75.7653 221° Southwest 432 497 34,000 60 Climbing Boston Center
07:34AM 43.4408 -75.8775 221° Southwest 437 503 34,000  Level Boston Center
07:35AM 43.3369 -76.0031 220° Southwest 450 518 34,000  Level Boston Center
07:36AM 43.2439 -76.1117 216° Southwest 450 518 34,000  Level Boston Center
07:38AM 43.0864 -76.2703 211° Southwest 449 517 34,000  Level Cleveland Center
07:39AM 42.9811 -76.3572 211° Southwest 449 517 34,000  Level Cleveland Center
07:40AM 42.7792 -76.5208 212° Southwest 444 511 34,000  Level New York Center
07:41AM 42.6817 -76.6025 210° Southwest 449 517 34,000  Level New York Center
07:42AM 42.5733 -76.6883 211° Southwest 454 522 34,000  Level New York Center
07:43AM 42.4647 -76.7769 210° Southwest 459 528 34,000  Level New York Center
07:44AM 42.3542 -76.8650 211° Southwest 465 535 34,000  Level New York Center
07:45AM 42.2325 -76.9631 211° Southwest 472 543 34,000  Level New York Center
07:46AM 42.1217 -77.0533 211° Southwest 472 543 34,000  Level New York Center
07:47AM 42.0086 -77.1431 210° Southwest 472 543 34,000  Level New York Center
07:48AM 41.8978 -77.2300 211° Southwest 472 543 34,000  Level New York Center
07:49AM 41.7889 -77.3169 210° Southwest 472 543 34,000  Level New York Center
07:50AM 41.6822 -77.4008 210° Southwest 466 536 34,000  Level New York Center
07:51AM 41.5775 -77.4819 210° Southwest 461 531 34,000  Level New York Center
07:54AM 41.3392 -77.6653 211° Southwest 429 494 34,000  Level Cleveland Center
07:55AM 41.2350 -77.7472 210° Southwest 434 499 34,000  Level Cleveland Center
07:56AM 41.1325 -77.8261 211° Southwest 434 499 34,000  Level Cleveland Center
07:57AM 41.0281 -77.9078 210° Southwest 434 499 34,000  Level Cleveland Center
07:58AM 40.9258 -77.9861 227° Southwest 434 499 34,000  Level Cleveland Center
07:59AM 40.8531 -78.0906 230° Southwest 399 459 34,000  Level Cleveland Center
08:00AM 40.7844 -78.2000 230° Southwest 394 453 34,000  Level Cleveland Center
08:01AM 40.7136 -78.3094 226° Southwest 394 453 34,000  Level Cleveland Center
08:02AM 40.6367 -78.4161 210° Southwest 399 459 34,000  Level Cleveland Center
08:03AM 40.5336 -78.4931 209° Southwest 418 481 34,000  Level Cleveland Center
08:04AM 40.4289 -78.5700 209° Southwest 430 495 34,000  Level Cleveland Center
08:05AM 40.3175 -78.6497 209° Southwest 441 507 34,000  Level Cleveland Center
08:06AM 40.2106 -78.7261 208° Southwest 446 513 34,000  Level Cleveland Center
08:07AM 40.1011 -78.8025 221° Southwest 451 519 34,000  Level Cleveland Center
08:08AM 40.0131 -78.9025 236° Southwest 435 501 34,000  Level Cleveland Center
08:09AM 39.9461 -79.0342 234° Southwest 413 475 34,000  Level Cleveland Center
08:10AM 39.8811 -79.1519 233° Southwest 413 475 34,000  Level Cleveland Center
08:11AM 39.8156 -79.2669 234° Southwest 408 470 34,000  Level Cleveland Center
08:12AM 39.7503 -79.3842 234° Southwest 408 470 34,000  Level Cleveland Center
08:13AM 39.6867 -79.4986 233° Southwest 408 470 34,000  Level Cleveland Center
08:14AM 39.6211 -79.6103 234° Southwest 403 464 34,000  Level Cleveland Center
08:15AM 39.5575 -79.7242 233° Southwest 403 464 34,000  Level Cleveland Center
08:16AM 39.4914 -79.8381 233° Southwest 398 458 34,000  Level Cleveland Center
08:19AM 39.2958 -80.1736 235° Southwest 399 459 34,000  Level Indianapolis Center
08:20AM 39.2322 -80.2892 232° Southwest 399 459 34,000  Level Indianapolis Center
08:21AM 39.1644 -80.3994 233° Southwest 399 459 34,000  Level Indianapolis Center
08:22AM 39.0944 -80.5175 233° Southwest 404 465 34,000  Level Indianapolis Center
08:23AM 39.0264 -80.6325 233° Southwest 404 465 34,000  Level Indianapolis Center
08:24AM 38.9583 -80.7503 234° Southwest 404 465 34,000  Level Indianapolis Center
08:25AM 38.8903 -80.8703 232° Southwest 410 472 34,000  Level Indianapolis Center
08:26AM 38.8178 -80.9875 215° Southwest 416 479 34,000  Level Indianapolis Center
08:27AM 38.7156 -81.0792 204° Southwest 426 490 34,000  Level Indianapolis Center
08:28AM 38.6208 -81.1328 206° Southwest 444 511 34,000  Level Indianapolis Center
08:29AM 38.4931 -81.2114 204° Southwest 456 525 34,000  Level Indianapolis Center
08:30AM 38.3756 -81.2789 205° Southwest 467 537 34,000  Level Indianapolis Center
08:31AM 38.2619 -81.3458 205° Southwest 467 537 34,000  Level Indianapolis Center
08:32AM 38.1422 -81.4156 204° Southwest 467 537 34,000  Level Indianapolis Center
08:33AM 38.0308 -81.4792 204° Southwest 456 525 34,000  Level Indianapolis Center
08:34AM 37.9153 -81.5458 205° Southwest 456 525 34,000  Level Indianapolis Center
08:35AM 37.7933 -81.6175 203° Southwest 456 525 34,000  Level Indianapolis Center
08:36AM 37.6775 -81.6808 204° Southwest 451 519 34,000  Level Indianapolis Center
08:37AM 37.5597 -81.7467 204° Southwest 456 525 34,000  Level Indianapolis Center
08:39AM 37.3300 -81.8753 204° Southwest 456 525 34,000  Level Atlanta Center
08:40AM 37.2122 -81.9408 205° Southwest 456 525 34,000  Level Atlanta Center
08:41AM 37.0944 -82.0092 203° Southwest 456 525 34,000  Level Atlanta Center
08:42AM 36.9767 -82.0719 204° Southwest 456 525 34,000  Level Atlanta Center
08:43AM 36.8569 -82.1372 205° Southwest 461 531 34,000  Level Atlanta Center
08:44AM 36.7286 -82.2103 203° Southwest 456 525 34,000  Level Atlanta Center
08:45AM 36.6086 -82.2750 204° Southwest 456 525 34,000  Level Atlanta Center
08:46AM 36.4928 -82.3394 203° Southwest 456 525 34,000  Level Atlanta Center
08:47AM 36.3728 -82.4039 204° Southwest 456 525 34,000  Level Atlanta Center
08:48AM 36.2567 -82.4681 203° Southwest 456 525 34,000  Level Atlanta Center
08:49AM 36.1367 -82.5322 203° Southwest 456 525 34,000  Level Atlanta Center
08:50AM 36.0206 -82.5933 204° Southwest 456 525 34,000  Level Atlanta Center
08:51AM 35.9025 -82.6594 202° Southwest 461 531 34,000  Level Atlanta Center
08:52AM 35.7822 -82.7206 205° Southwest 468 539 34,000  Level Atlanta Center
08:53AM 35.6658 -82.7861 202° Southwest 463 533 34,000 -120 Level Atlanta Center
08:54AM 35.5456 -82.8467 204° Southwest 463 533 33,800 -300 Descending Atlanta Center
08:55AM 35.4294 -82.9097 204° Southwest 463 533 33,500 -600 Descending Atlanta Center
08:56AM 35.3111 -82.9750 204° Southwest 457 526 32,600 -1,140 Descending Atlanta Center
08:57AM 35.2072 -83.0322 203° Southwest 457 526 31,300 -840 Descending Atlanta Center
08:58AM 35.0908 -83.0919 204° Southwest 457 526 31,000 -780 Descending Atlanta Center
08:59AM 34.9744 -83.1542 203° Southwest 457 526 29,800 -1,800 Descending Atlanta Center
09:00AM 34.8456 -83.2214 203° Southwest 457 526 27,500 -2,100 Descending Atlanta Center
09:01AM 34.7456 -83.2728 212° Southwest 450 518 25,600 -2,160 Descending Atlanta Center
09:02AM 34.6356 -83.3547 216° Southwest 436 502 23,200 -2,220 Descending Atlanta Center
09:03AM 34.5461 -83.4336 216° Southwest 415 478 21,200 -1,980 Descending Atlanta Center
09:04AM 34.4631 -83.5072 216° Southwest 394 453 19,300 -1,860 Descending Atlanta Center
09:05AM 34.3758 -83.5833 217° Southwest 387 445 17,500 -1,680 Descending Atlanta Center
09:06AM 34.3050 -83.6489 217° Southwest 376 433 16,000 -1,620 Descending Atlanta Center
09:07AM 34.2239 -83.7222 216° Southwest 371 427 14,300 -1,620 Descending Atlanta Center
09:08AM 34.1467 -83.7903 217° Southwest 361 415 12,800 -1,260 Descending Atlanta Center
09:09AM 34.0800 -83.8506 208° Southwest 326 375 11,800 -1,260 Descending Atlanta Center
09:10AM 34.0092 -83.8961 202° Southwest 301 346 10,300 -960 Descending Atlanta Center
09:11AM 33.9333 -83.9333 192° South 281 323 10,000 -240 Descending Atlanta TRACON
09:12AM 33.8667 -83.9500 189° South 295 339 9,900 -480 Descending Atlanta TRACON
09:13AM 33.7833 -83.9667 182° South 295 339 9,200 -1,080 Descending Atlanta TRACON
09:14AM 33.6900 -83.9714 234° Southwest 295 339 7,700 -960 Descending Atlanta Center
09:15AM 33.6333 -84.0667 270° West 206 237 6,500 -840 Descending Atlanta TRACON
09:16AM 33.6333 -84.1333 270° West 193 222 5,600 -1,080 Descending Atlanta TRACON
09:17AM 33.6333 -84.2000 270° West 206 237 4,500 -1,140 Descending Atlanta TRACON
09:18AM 33.6333 -84.2667 270° West 204 235 3,500 -960 Descending Atlanta TRACON
09:19AM 33.6333 -84.3167 270° West 163 188 2,600 -840 Descending Atlanta TRACON
09:20AM 33.6333 -84.3667 270° West 134 154 1,900 -720 Descending Atlanta TRACON